< < Back
Terminal Aerodrome Forecast


Current Version              Previous Versions:   1  2  3  4  5  6  7  8  9  

Terminal Aerodrome Forecast

277
FTUS42 KTAE 271738
TAFDHN
TAF
KDHN 271738Z 2718/2818 09008KT P6SM FEW050 SCT250
     FM280100 10003KT P6SM SCT250
     FM281000 00000KT 4SM BR SCT250
     FM281300 10007KT P6SM FEW040 SCT250=

Latest METAR

082
SAUS70 KWBC 271956
MTRDHN
METAR KDHN 271953Z 12011KT 10SM BKN060 31/16 A3004 RMK AO2 SLP166
T03060156


USA.gov is the U.S. government's official web portal to all federal, state and local government web resources and services.